createdAt,value
2023-05-10T00:01:33.919Z,22.53
2023-05-10T00:04:02.994Z,22.54
2023-05-10T00:06:32.449Z,22.70
2023-05-10T00:09:01.471Z,22.66
2023-05-10T00:11:30.443Z,22.60
2023-05-10T00:13:59.447Z,22.63
2023-05-10T00:16:28.493Z,22.82
2023-05-10T00:18:57.523Z,22.63
2023-05-10T00:21:26.460Z,22.57
2023-05-10T00:23:55.409Z,22.61
2023-05-10T00:26:24.393Z,22.61
2023-05-10T00:28:54.269Z,22.63
2023-05-10T00:31:23.417Z,22.60
2023-05-10T00:33:52.830Z,22.61
2023-05-10T00:36:28.153Z,22.72
2023-05-10T00:39:02.662Z,22.77
2023-05-10T00:41:31.950Z,22.86
2023-05-10T00:44:06.732Z,22.85
2023-05-10T00:46:59.902Z,22.84
2023-05-10T00:49:29.364Z,22.83
2023-05-10T00:52:00.247Z,22.84
2023-05-10T00:54:29.265Z,22.84
2023-05-10T00:56:59.518Z,22.92
2023-05-10T00:59:28.562Z,22.93
2023-05-10T01:01:57.548Z,23.03
2023-05-10T01:04:32.714Z,23.10
2023-05-10T01:07:02.070Z,23.05
2023-05-10T01:09:31.558Z,23.04
2023-05-10T01:12:00.623Z,23.23
2023-05-10T01:14:29.829Z,23.29
2023-05-10T01:16:58.838Z,23.36
2023-05-10T01:19:31.781Z,23.21
2023-05-10T01:22:09.942Z,23.26
2023-05-10T01:24:57.066Z,23.29
2023-05-10T01:27:44.046Z,23.32
2023-05-10T01:30:31.033Z,23.21
2023-05-10T01:33:11.105Z,23.15
2023-05-10T01:35:56.036Z,23.27
2023-05-10T01:38:33.019Z,23.45
2023-05-10T01:41:20.209Z,23.42
2023-05-10T01:44:09.196Z,23.40
2023-05-10T01:46:41.765Z,23.74
2023-05-10T01:49:24.917Z,23.60
2023-05-10T01:51:54.459Z,23.66
2023-05-10T01:54:23.620Z,23.37
2023-05-10T01:56:56.077Z,23.39
2023-05-10T01:59:25.224Z,23.48
2023-05-10T02:01:54.199Z,23.69
2023-05-10T02:04:23.203Z,23.74
2023-05-10T02:06:52.196Z,23.94
2023-05-10T02:09:21.255Z,23.95
2023-05-10T02:11:50.919Z,24.02
2023-05-10T02:14:19.944Z,23.97
2023-05-10T02:16:49.000Z,24.07
2023-05-10T02:19:18.050Z,24.08
2023-05-10T02:21:47.132Z,24.11
2023-05-10T02:24:16.546Z,24.13
2023-05-10T02:26:45.647Z,24.20
2023-05-10T02:29:14.869Z,24.19
2023-05-10T02:31:46.000Z,24.24
2023-05-10T02:34:15.048Z,24.24
2023-05-10T02:36:46.820Z,24.22
2023-05-10T02:39:16.154Z,24.27
2023-05-10T02:41:45.116Z,24.31
2023-05-10T02:44:14.115Z,24.25
2023-05-10T02:46:43.162Z,24.19
2023-05-10T02:49:12.169Z,24.22
2023-05-10T02:51:43.724Z,24.23
2023-05-10T02:54:21.469Z,24.31
2023-05-10T02:56:50.773Z,24.29
2023-05-10T02:59:19.759Z,24.36
2023-05-10T03:01:48.825Z,24.33
2023-05-10T03:04:18.085Z,24.31
2023-05-10T03:06:47.194Z,24.40
2023-05-10T03:09:17.970Z,24.41
2023-05-10T03:11:57.927Z,24.34
2023-05-10T03:14:33.414Z,24.37
2023-05-10T03:17:04.109Z,24.32
2023-05-10T03:19:40.114Z,24.37
2023-05-10T03:22:10.885Z,24.44
2023-05-10T03:24:39.881Z,24.41
2023-05-10T03:27:09.065Z,24.46
2023-05-10T03:29:39.187Z,24.47
2023-05-10T03:32:08.122Z,24.43
2023-05-10T03:34:37.174Z,24.41
2023-05-10T03:37:06.143Z,24.42
2023-05-10T03:39:35.149Z,24.37
2023-05-10T03:42:04.126Z,24.36
2023-05-10T03:44:33.624Z,24.43
2023-05-10T03:47:02.819Z,24.42
2023-05-10T03:49:32.381Z,24.36
2023-05-10T03:52:04.452Z,24.49
2023-05-10T03:54:44.568Z,24.36
2023-05-10T03:57:13.534Z,24.47
2023-05-10T03:59:42.534Z,24.46
2023-05-10T04:02:12.126Z,24.43
2023-05-10T04:04:41.157Z,24.53
2023-05-10T04:07:10.294Z,24.53
2023-05-10T04:09:39.279Z,24.59
2023-05-10T04:12:10.180Z,24.40
2023-05-10T04:14:39.957Z,24.65
2023-05-10T04:19:45.482Z,24.68
2023-05-10T04:22:14.476Z,24.61
2023-05-10T04:24:43.422Z,24.54
2023-05-10T04:27:13.939Z,24.63
2023-05-10T04:29:42.872Z,24.65
2023-05-10T04:32:12.640Z,24.68
2023-05-10T04:34:41.617Z,24.47
2023-05-10T04:37:10.570Z,24.59
2023-05-10T04:39:40.982Z,24.49
2023-05-10T04:42:11.379Z,24.64
2023-05-10T04:44:40.412Z,24.79
2023-05-10T04:47:11.261Z,24.78
2023-05-10T04:49:41.620Z,24.88
2023-05-10T04:52:10.570Z,24.84
2023-05-10T04:54:39.561Z,24.94
2023-05-10T04:57:08.552Z,24.87
2023-05-10T04:59:39.176Z,24.90
2023-05-10T05:02:08.225Z,24.91
2023-05-10T05:04:37.258Z,24.79
2023-05-10T05:07:06.209Z,24.83
2023-05-10T05:09:35.180Z,24.73
2023-05-10T05:12:04.153Z,24.64
2023-05-10T05:14:33.160Z,24.82
2023-05-10T05:17:02.334Z,24.76
2023-05-10T05:19:31.375Z,24.82
2023-05-10T05:22:00.361Z,24.76
2023-05-10T05:24:29.315Z,24.87
2023-05-10T05:26:58.509Z,24.57
2023-05-10T05:29:27.458Z,24.51
2023-05-10T05:31:56.627Z,24.49
2023-05-10T05:34:25.742Z,24.53
2023-05-10T05:36:54.707Z,24.38
2023-05-10T05:39:23.813Z,24.34
2023-05-10T05:41:52.859Z,24.40
2023-05-10T05:44:21.899Z,24.67
2023-05-10T05:46:50.853Z,24.65
2023-05-10T05:49:19.858Z,24.78
2023-05-10T05:51:48.852Z,24.70
2023-05-10T05:54:17.822Z,24.82
2023-05-10T05:56:46.890Z,24.84
2023-05-10T05:59:15.850Z,24.80
2023-05-10T06:01:44.861Z,24.88
2023-05-10T06:04:13.959Z,24.78
2023-05-10T06:06:43.012Z,25.14
2023-05-10T06:09:12.219Z,24.81
2023-05-10T06:11:41.256Z,24.46
2023-05-10T06:14:10.444Z,24.59
2023-05-10T06:16:39.479Z,24.61
2023-05-10T06:19:08.485Z,24.58
2023-05-10T06:21:37.470Z,24.68
2023-05-10T06:24:07.112Z,24.65
2023-05-10T06:26:36.301Z,24.90
2023-05-10T06:29:05.211Z,25.05
2023-05-10T06:31:34.230Z,25.07
2023-05-10T06:34:03.263Z,24.79
2023-05-10T06:36:32.245Z,24.86
2023-05-10T06:39:01.156Z,25.07
2023-05-10T06:41:30.164Z,25.17
2023-05-10T06:43:59.078Z,25.21
2023-05-10T06:46:28.364Z,25.16
2023-05-10T06:48:57.334Z,25.07
2023-05-10T06:51:26.307Z,25.07
2023-05-10T06:53:55.408Z,25.20
2023-05-10T06:56:24.390Z,25.11
2023-05-10T06:58:53.552Z,25.10
2023-05-10T07:01:22.700Z,25.07
2023-05-10T07:03:51.977Z,25.04
2023-05-10T07:06:32.181Z,25.06
2023-05-10T07:09:01.746Z,24.92
2023-05-10T07:11:30.832Z,25.06
2023-05-10T07:13:59.785Z,24.92
2023-05-10T07:16:28.855Z,25.04
2023-05-10T07:18:57.886Z,25.00
2023-05-10T07:21:26.909Z,24.98
2023-05-10T07:23:55.897Z,25.01
2023-05-10T07:26:24.931Z,24.96
2023-05-10T07:28:53.915Z,24.94
2023-05-10T07:31:22.854Z,24.92
2023-05-10T07:33:51.837Z,24.90
2023-05-10T07:36:20.819Z,25.02
2023-05-10T07:38:49.856Z,25.08
2023-05-10T07:41:18.890Z,25.04
2023-05-10T07:43:48.048Z,24.96
2023-05-10T07:46:17.076Z,24.98
2023-05-10T07:48:46.067Z,24.94
2023-05-10T07:51:18.051Z,24.70
2023-05-10T07:53:47.018Z,24.71
2023-05-10T07:56:31.925Z,24.86
2023-05-10T07:59:05.116Z,24.88
2023-05-10T08:01:35.017Z,24.87
2023-05-10T08:04:04.586Z,24.84
2023-05-10T08:06:33.564Z,24.81
2023-05-10T08:09:02.594Z,24.84
2023-05-10T08:11:32.814Z,24.91
2023-05-10T08:14:02.823Z,24.88
2023-05-10T08:16:31.956Z,24.89
2023-05-10T08:19:01.037Z,24.87
2023-05-10T08:21:30.105Z,24.85
2023-05-10T08:23:59.086Z,24.84
2023-05-10T08:26:28.468Z,24.81
2023-05-10T08:28:57.475Z,24.79
2023-05-10T08:31:26.489Z,24.78
2023-05-10T08:33:55.503Z,24.67
2023-05-10T08:36:26.662Z,24.65
2023-05-10T08:38:55.910Z,24.55
2023-05-10T08:41:26.309Z,24.51
2023-05-10T08:43:58.251Z,24.56
2023-05-10T08:46:29.095Z,24.58
2023-05-10T08:48:58.424Z,24.53
2023-05-10T08:51:30.489Z,24.45
2023-05-10T08:53:59.422Z,24.46
2023-05-10T08:56:28.394Z,24.40
2023-05-10T08:58:57.637Z,24.44
2023-05-10T09:01:26.616Z,24.29
2023-05-10T09:03:55.605Z,24.36
2023-05-10T09:06:24.898Z,24.56
2023-05-10T09:08:53.930Z,24.52
2023-05-10T09:11:23.041Z,24.51
2023-05-10T09:13:52.036Z,24.50
2023-05-10T09:16:22.482Z,24.49
2023-05-10T09:18:52.120Z,24.50
2023-05-10T09:21:22.719Z,24.51
2023-05-10T09:23:52.592Z,24.51
2023-05-10T09:26:25.137Z,24.47
2023-05-10T09:29:01.340Z,24.42
2023-05-10T09:31:50.366Z,24.43
2023-05-10T09:34:20.552Z,24.42
2023-05-10T09:36:56.204Z,24.41
2023-05-10T09:39:34.753Z,24.38
2023-05-10T09:42:12.815Z,24.40
2023-05-10T09:44:43.441Z,24.38
2023-05-10T09:47:12.409Z,24.31
2023-05-10T09:49:41.303Z,24.33
2023-05-10T09:52:10.544Z,24.31
2023-05-10T09:54:39.540Z,24.27
2023-05-10T09:57:08.506Z,24.22
2023-05-10T09:59:38.048Z,24.17
2023-05-10T10:02:07.039Z,24.24
2023-05-10T10:04:36.108Z,24.13
2023-05-10T10:07:05.939Z,24.09
2023-05-10T10:09:35.323Z,24.06
2023-05-10T10:12:07.535Z,24.05
2023-05-10T10:14:36.500Z,23.98
2023-05-10T10:17:08.722Z,23.97
2023-05-10T10:19:38.486Z,23.96
2023-05-10T10:22:08.141Z,23.90
2023-05-10T10:24:37.184Z,23.93
2023-05-10T10:27:18.656Z,23.88
2023-05-10T10:29:53.280Z,23.84
2023-05-10T10:32:29.226Z,23.83
2023-05-10T10:34:58.729Z,23.72
2023-05-10T10:37:43.911Z,23.68
2023-05-10T10:40:34.694Z,23.59
2023-05-10T10:43:22.340Z,23.55
2023-05-10T10:46:11.302Z,23.52
2023-05-10T10:48:40.281Z,23.44
2023-05-10T10:51:10.883Z,23.37
2023-05-10T10:53:43.930Z,23.41
2023-05-10T10:56:14.147Z,23.34
2023-05-10T10:58:43.187Z,23.31
2023-05-10T11:01:15.638Z,23.30
2023-05-10T11:03:45.043Z,23.29
2023-05-10T11:06:14.303Z,23.26
2023-05-10T11:08:46.677Z,23.22
2023-05-10T11:11:17.376Z,23.16
2023-05-10T11:13:50.002Z,23.17
2023-05-10T11:16:24.272Z,23.15
2023-05-10T11:18:57.226Z,23.16
2023-05-10T11:21:26.291Z,23.09
2023-05-10T11:23:58.726Z,23.08
2023-05-10T11:26:28.583Z,23.09
2023-05-10T11:29:02.000Z,23.08
2023-05-10T11:31:31.252Z,23.01
2023-05-10T11:34:00.922Z,23.02
2023-05-10T11:36:30.882Z,22.98
2023-05-10T11:38:59.927Z,22.98
2023-05-10T11:41:30.704Z,22.96
2023-05-10T11:44:00.120Z,22.87
2023-05-10T11:46:30.884Z,22.89
2023-05-10T11:49:09.472Z,22.85
2023-05-10T11:51:38.885Z,22.85
2023-05-10T11:54:14.965Z,22.85
2023-05-10T11:56:44.105Z,22.84
2023-05-10T11:59:13.067Z,22.81
2023-05-10T12:01:42.545Z,22.81
2023-05-10T12:04:11.901Z,22.81
2023-05-10T12:06:43.383Z,22.80
2023-05-10T12:09:12.869Z,22.78
2023-05-10T12:11:45.308Z,22.78
2023-05-10T12:14:14.429Z,22.76
2023-05-10T12:16:44.003Z,22.75
2023-05-10T12:19:13.309Z,22.73
2023-05-10T12:21:43.992Z,22.76
2023-05-10T12:24:13.090Z,22.72
2023-05-10T12:29:27.393Z,22.69
2023-05-10T12:32:00.257Z,22.70
2023-05-10T12:34:33.241Z,22.67
2023-05-10T12:37:02.383Z,22.69
2023-05-10T12:39:47.277Z,22.67
2023-05-10T12:42:16.236Z,22.71
2023-05-10T12:44:45.165Z,22.70
2023-05-10T12:47:14.132Z,22.63
2023-05-10T12:49:43.065Z,22.66
2023-05-10T12:52:12.095Z,22.62
2023-05-10T12:54:40.987Z,22.61
2023-05-10T12:59:43.683Z,22.63
2023-05-10T13:02:12.804Z,22.59
2023-05-10T13:04:42.299Z,22.55
2023-05-10T13:07:11.481Z,22.54
2023-05-10T13:09:40.525Z,22.55
2023-05-10T13:12:10.101Z,22.51
2023-05-10T13:14:39.407Z,22.50
2023-05-10T13:17:08.482Z,22.45
2023-05-10T13:19:37.581Z,22.41
2023-05-10T13:22:06.578Z,22.43
2023-05-10T13:24:35.640Z,22.41
2023-05-10T13:27:04.961Z,22.38
2023-05-10T13:29:34.434Z,22.39
2023-05-10T13:32:03.465Z,22.35
2023-05-10T13:34:32.599Z,22.33
2023-05-10T13:37:01.541Z,22.35
2023-05-10T13:39:33.343Z,22.35
2023-05-10T13:42:02.318Z,22.36
2023-05-10T13:44:31.227Z,22.29
2023-05-10T13:47:00.164Z,22.31
2023-05-10T13:49:29.708Z,22.28
2023-05-10T13:51:58.725Z,22.27
2023-05-10T13:54:27.803Z,22.24
2023-05-10T13:56:56.798Z,22.26
2023-05-10T13:59:25.734Z,22.21
2023-05-10T14:01:54.992Z,22.19
2023-05-10T14:04:23.961Z,22.16
2023-05-10T14:06:53.204Z,22.14
2023-05-10T14:09:22.574Z,22.18
2023-05-10T14:11:51.618Z,22.17
2023-05-10T14:14:20.553Z,22.13
2023-05-10T14:16:49.695Z,22.16
2023-05-10T14:19:18.723Z,22.12
2023-05-10T14:21:47.763Z,22.09
2023-05-10T14:24:16.656Z,22.06
2023-05-10T14:26:45.549Z,22.06
2023-05-10T14:29:14.438Z,22.04
2023-05-10T14:31:43.436Z,22.03
2023-05-10T14:34:12.550Z,22.06
2023-05-10T14:36:42.014Z,22.04
2023-05-10T14:39:12.573Z,22.02
2023-05-10T14:41:44.009Z,22.00
2023-05-10T14:44:13.148Z,21.98
2023-05-10T14:46:42.598Z,21.97
2023-05-10T14:49:11.502Z,21.94
2023-05-10T14:51:40.495Z,21.92
2023-05-10T14:54:09.452Z,21.99
2023-05-10T14:56:39.762Z,21.94
2023-05-10T14:59:08.700Z,21.94
2023-05-10T15:01:39.915Z,21.95
2023-05-10T15:04:09.294Z,21.86
2023-05-10T15:06:39.342Z,21.93
2023-05-10T15:09:08.720Z,21.92
2023-05-10T15:11:37.651Z,21.89
2023-05-10T15:14:06.691Z,21.93
2023-05-10T15:16:36.285Z,21.91
2023-05-10T15:19:05.473Z,21.89
2023-05-10T15:21:41.006Z,21.93
2023-05-10T15:24:10.081Z,21.91
2023-05-10T15:26:39.075Z,21.88
2023-05-10T15:29:07.988Z,21.89
2023-05-10T15:31:39.861Z,21.85
2023-05-10T15:34:08.855Z,21.84
2023-05-10T15:36:37.758Z,21.89
2023-05-10T15:39:06.747Z,21.89
2023-05-10T15:41:35.682Z,21.88
2023-05-10T15:44:04.754Z,21.87
2023-05-10T15:46:33.718Z,21.87
2023-05-10T15:49:02.660Z,21.83
2023-05-10T15:51:31.690Z,21.81
2023-05-10T15:54:07.332Z,21.86
2023-05-10T15:56:37.235Z,21.85
2023-05-10T15:59:07.609Z,21.85
2023-05-10T16:01:36.637Z,21.91
2023-05-10T16:04:05.639Z,21.84
2023-05-10T16:06:35.737Z,21.86
2023-05-10T16:09:04.729Z,21.85
2023-05-10T16:11:33.725Z,21.85
2023-05-10T16:14:02.809Z,21.81
2023-05-10T16:16:31.837Z,21.75
2023-05-10T16:19:02.890Z,21.82
2023-05-10T16:21:34.932Z,21.82
2023-05-10T16:24:05.072Z,21.77
2023-05-10T16:26:33.975Z,21.73
2023-05-10T16:29:02.923Z,21.69
2023-05-10T16:31:32.058Z,21.71
2023-05-10T16:34:01.044Z,21.72
2023-05-10T16:36:30.240Z,21.71
2023-05-10T16:38:59.201Z,21.69
2023-05-10T16:41:28.305Z,21.68
2023-05-10T16:43:59.033Z,21.71
2023-05-10T16:46:28.494Z,21.70
2023-05-10T16:48:57.470Z,21.70
2023-05-10T16:51:26.428Z,21.67
2023-05-10T16:53:55.541Z,21.65
2023-05-10T16:56:24.917Z,21.61
2023-05-10T16:58:53.864Z,21.62
2023-05-10T17:01:24.348Z,21.64
2023-05-10T17:03:54.840Z,21.58
2023-05-10T17:06:23.830Z,21.54
2023-05-10T17:08:53.272Z,21.54
2023-05-10T17:11:23.339Z,21.55
2023-05-10T17:13:53.975Z,21.54
2023-05-10T17:16:22.930Z,21.51
2023-05-10T17:18:52.129Z,21.50
2023-05-10T17:21:21.095Z,21.54
2023-05-10T17:23:50.107Z,21.48
2023-05-10T17:26:19.102Z,21.44
2023-05-10T17:28:48.804Z,21.42
2023-05-10T17:31:17.950Z,21.45
2023-05-10T17:33:46.899Z,21.46
2023-05-10T17:36:15.870Z,21.44
2023-05-10T17:38:45.012Z,21.49
2023-05-10T17:41:13.972Z,21.50
2023-05-10T17:43:42.996Z,21.43
2023-05-10T17:46:12.073Z,21.43
2023-05-10T17:48:41.271Z,21.46
2023-05-10T17:51:10.372Z,21.39
2023-05-10T17:53:39.773Z,21.34
2023-05-10T17:56:08.993Z,21.38
2023-05-10T17:58:39.774Z,21.37
2023-05-10T18:01:08.817Z,21.34
2023-05-10T18:03:37.891Z,21.34
2023-05-10T18:06:06.988Z,21.37
2023-05-10T18:08:36.012Z,21.29
2023-05-10T18:11:05.009Z,21.30
2023-05-10T18:13:33.970Z,21.33
2023-05-10T18:16:03.006Z,21.33
2023-05-10T18:18:31.970Z,21.32
2023-05-10T18:21:01.130Z,21.30
2023-05-10T18:23:30.144Z,21.33
2023-05-10T18:25:59.601Z,21.28
2023-05-10T18:28:28.578Z,21.25
2023-05-10T18:30:57.557Z,21.27
2023-05-10T18:33:26.708Z,21.24
2023-05-10T18:35:55.758Z,21.23
2023-05-10T18:38:24.838Z,21.26
2023-05-10T18:40:53.875Z,21.25
2023-05-10T18:43:22.893Z,21.25
2023-05-10T18:45:52.794Z,21.22
2023-05-10T18:48:21.818Z,21.23
2023-05-10T18:50:51.473Z,21.20
2023-05-10T18:53:20.569Z,21.20
2023-05-10T18:55:49.569Z,21.12
2023-05-10T18:58:18.570Z,21.14
2023-05-10T19:00:47.542Z,21.14
2023-05-10T19:03:16.482Z,21.15
2023-05-10T19:05:45.425Z,21.18
2023-05-10T19:08:14.425Z,21.10
2023-05-10T19:10:43.399Z,21.08
2023-05-10T19:13:12.439Z,21.09
2023-05-10T19:15:41.444Z,21.14
2023-05-10T19:18:10.818Z,21.15
2023-05-10T19:20:41.661Z,21.19
2023-05-10T19:23:11.372Z,21.09
2023-05-10T19:25:40.835Z,21.15
2023-05-10T19:28:11.494Z,21.11
2023-05-10T19:30:40.405Z,21.06
2023-05-10T19:33:10.742Z,21.03
2023-05-10T19:35:40.748Z,21.07
2023-05-10T19:40:38.496Z,21.02
2023-05-10T19:43:07.505Z,21.06
2023-05-10T19:45:38.703Z,21.13
2023-05-10T19:48:07.924Z,21.02
2023-05-10T19:50:37.002Z,21.02
2023-05-10T19:53:05.988Z,21.00
2023-05-10T19:55:35.313Z,21.01
2023-05-10T19:58:05.179Z,20.98
2023-05-10T20:00:34.126Z,21.04
2023-05-10T20:03:03.447Z,21.04
2023-05-10T20:05:32.426Z,20.93
2023-05-10T20:08:01.390Z,20.92
2023-05-10T20:10:30.367Z,20.92
2023-05-10T20:13:00.237Z,20.92
2023-05-10T20:15:30.833Z,20.87
2023-05-10T20:17:59.966Z,20.92
2023-05-10T20:20:28.912Z,20.92
2023-05-10T20:22:57.887Z,20.92
2023-05-10T20:25:27.073Z,20.85
2023-05-10T20:27:56.216Z,20.95
2023-05-10T20:30:25.142Z,20.90
2023-05-10T20:32:54.409Z,20.94
2023-05-10T20:35:23.536Z,21.03
2023-05-10T20:37:52.509Z,20.94
2023-05-10T20:40:21.503Z,20.93
2023-05-10T20:42:51.195Z,20.92
2023-05-10T20:45:20.191Z,20.92
2023-05-10T20:47:49.190Z,20.86
2023-05-10T20:50:18.480Z,20.89
2023-05-10T20:52:47.578Z,20.93
2023-05-10T20:55:16.565Z,20.93
2023-05-10T20:57:45.637Z,20.88
2023-05-10T21:00:15.688Z,20.90
2023-05-10T21:02:46.633Z,20.76
2023-05-10T21:05:15.680Z,20.70
2023-05-10T21:07:44.781Z,20.81
2023-05-10T21:10:14.238Z,20.89
2023-05-10T21:12:43.264Z,20.92
2023-05-10T21:15:12.427Z,20.89
2023-05-10T21:17:41.450Z,20.88
2023-05-10T21:20:10.757Z,20.96
2023-05-10T21:22:39.728Z,21.00
2023-05-10T21:25:09.170Z,21.17
2023-05-10T21:27:38.426Z,21.20
2023-05-10T21:30:08.561Z,21.18
2023-05-10T21:32:38.370Z,21.27
2023-05-10T21:35:07.877Z,21.34
2023-05-10T21:37:36.838Z,21.29
2023-05-10T21:40:23.857Z,21.39
2023-05-10T21:42:53.173Z,21.55
2023-05-10T21:45:22.153Z,21.48
2023-05-10T21:47:51.346Z,21.60
2023-05-10T21:50:20.561Z,21.81
2023-05-10T21:52:49.716Z,21.99
2023-05-10T21:55:18.745Z,22.05
2023-05-10T21:57:48.040Z,21.95
2023-05-10T22:00:18.036Z,21.88
2023-05-10T22:02:48.089Z,21.96
2023-05-10T22:05:17.192Z,22.09
2023-05-10T22:07:46.281Z,22.18
2023-05-10T22:10:15.504Z,22.28
2023-05-10T22:12:44.659Z,22.32
2023-05-10T22:15:13.702Z,22.33
2023-05-10T22:17:42.743Z,22.37
2023-05-10T22:22:40.194Z,22.43
2023-05-10T22:25:09.364Z,22.50
2023-05-10T22:27:38.393Z,22.44
2023-05-10T22:30:07.979Z,23.05
2023-05-10T22:32:36.978Z,22.42
2023-05-10T22:35:06.024Z,22.34
2023-05-10T22:37:34.972Z,22.27
2023-05-10T22:40:04.004Z,22.07
2023-05-10T22:42:32.997Z,22.25
2023-05-10T22:45:02.038Z,22.33
2023-05-10T22:47:31.063Z,22.63
2023-05-10T22:50:00.250Z,22.25
2023-05-10T22:52:29.371Z,22.34
2023-05-10T22:54:58.616Z,22.10
2023-05-10T23:39:53.185Z,22.07
2023-05-10T23:40:34.106Z,22.24
2023-05-10T23:50:00.164Z,22.32
2023-05-10T23:52:37.798Z,22.58
2023-05-10T23:58:16.357Z,22.46
